createdAt,value
2019-04-23T00:01:33.860Z,3.00
2019-04-23T00:04:00.974Z,6.20
2019-04-23T00:06:45.518Z,6.00
2019-04-23T00:11:39.610Z,6.80
2019-04-23T00:14:13.802Z,7.80
2019-04-23T00:16:47.395Z,3.60
2019-04-23T00:19:16.849Z,7.00
2019-04-23T00:21:52.110Z,6.00
2019-04-23T00:25:19.109Z,7.00
2019-04-23T00:29:53.511Z,6.00
2019-04-23T00:32:23.539Z,4.40
2019-04-23T00:34:54.570Z,3.00
2019-04-23T00:39:56.548Z,6.60
2019-04-23T00:42:40.423Z,4.00
2019-04-23T00:45:00.272Z,6.20
2019-04-23T00:47:38.141Z,6.60
2019-04-23T00:50:20.773Z,7.80
2019-04-23T00:52:46.130Z,7.00
2019-04-23T00:55:35.572Z,9.00
2019-04-23T01:00:34.149Z,7.00
2019-04-23T01:03:01.900Z,4.40
2019-04-23T01:07:58.226Z,8.20
2019-04-23T01:10:56.496Z,7.80
2019-04-23T01:13:39.338Z,6.20
2019-04-23T01:16:06.055Z,5.60
2019-04-23T01:20:56.408Z,7.20
2019-04-23T01:23:50.174Z,6.00
2019-04-23T01:26:34.330Z,7.40
2019-04-23T01:29:17.507Z,6.80
2019-04-23T01:31:49.313Z,7.00
2019-04-23T01:34:25.770Z,6.60
2019-04-23T01:36:54.605Z,6.60
2019-04-23T01:39:23.113Z,7.00
2019-04-23T01:42:07.109Z,8.20
2019-04-23T01:44:38.694Z,6.20
2019-04-23T01:47:05.300Z,8.20
2019-04-23T01:49:39.188Z,8.20
2019-04-23T01:52:08.330Z,7.00
2019-04-23T01:54:40.703Z,8.60
2019-04-23T01:57:10.432Z,6.40
2019-04-23T01:59:39.225Z,9.00
2019-04-23T02:02:14.094Z,7.00
2019-04-23T02:04:44.500Z,9.00
2019-04-23T02:07:23.983Z,6.00
2019-04-23T02:09:48.206Z,6.00
2019-04-23T02:12:21.277Z,8.20
2019-04-23T02:14:51.593Z,9.00
2019-04-23T02:17:24.757Z,9.00
2019-04-23T02:20:01.419Z,12.00
2019-04-23T02:22:38.218Z,9.00
2019-04-23T02:25:34.937Z,13.40
2019-04-23T02:28:03.022Z,8.60
2019-04-23T02:30:51.532Z,9.00
2019-04-23T02:33:26.303Z,11.60
2019-04-23T02:35:50.091Z,11.20
2019-04-23T02:38:10.145Z,9.60
2019-04-23T02:40:54.866Z,8.20
2019-04-23T02:43:12.651Z,8.60
2019-04-23T02:45:54.938Z,9.60
2019-04-23T02:48:19.826Z,7.40
2019-04-23T02:50:48.784Z,9.00
2019-04-23T02:53:26.330Z,9.40
2019-04-23T02:55:50.180Z,8.60
2019-04-23T02:58:28.347Z,9.00
2019-04-23T03:01:18.315Z,6.60
2019-04-23T03:05:57.149Z,7.00
2019-04-23T03:08:36.385Z,8.20
2019-04-23T03:11:09.781Z,10.80
2019-04-23T03:13:48.295Z,9.40
2019-04-23T03:19:11.221Z,7.80
2019-04-23T03:22:00.313Z,9.80
2019-04-23T03:27:22.893Z,13.00
2019-04-23T03:29:54.945Z,9.40
2019-04-23T03:40:01.905Z,9.60
2019-04-23T03:42:47.378Z,9.80
2019-04-23T03:45:17.285Z,11.20
2019-04-23T03:52:38.386Z,10.40
2019-04-23T03:57:38.304Z,15.80
2019-04-23T04:00:24.719Z,9.00
2019-04-23T04:03:10.371Z,11.60
2019-04-23T04:05:32.682Z,9.00
2019-04-23T04:10:25.050Z,10.00
2019-04-23T04:15:46.196Z,10.20
2019-04-23T04:18:18.628Z,13.20
2019-04-23T04:20:35.771Z,9.80
2019-04-23T04:25:42.818Z,9.00
2019-04-23T04:28:12.950Z,10.40
2019-04-23T04:36:04.799Z,12.20
2019-04-23T04:41:04.297Z,11.40
2019-04-23T04:43:45.714Z,14.20
2019-04-23T04:46:16.633Z,12.40
2019-04-23T04:48:40.222Z,16.20
2019-04-23T04:51:13.271Z,12.40
2019-04-23T04:56:14.495Z,12.20
2019-04-23T05:08:54.468Z,14.40
2019-04-23T05:11:27.629Z,11.40
2019-04-23T05:13:51.452Z,12.20
2019-04-23T05:21:46.595Z,13.40
2019-04-23T05:24:21.771Z,14.20
2019-04-23T05:26:48.201Z,13.80
2019-04-23T05:29:19.946Z,14.20
2019-04-23T05:31:32.965Z,6.20
2019-04-23T05:34:12.589Z,12.00
2019-04-23T05:41:45.238Z,13.00
2019-04-23T05:44:29.653Z,13.20
2019-04-23T05:47:02.745Z,12.00
2019-04-23T05:49:36.193Z,9.80
2019-04-23T05:52:04.479Z,13.00
2019-04-23T05:57:09.577Z,14.80
2019-04-23T05:59:43.627Z,15.40
2019-04-23T06:04:43.042Z,18.00
2019-04-23T06:07:29.815Z,19.00
2019-04-23T06:09:54.970Z,16.40
2019-04-23T06:12:24.993Z,13.80
2019-04-23T06:14:57.341Z,14.20
2019-04-23T06:17:27.497Z,12.00
2019-04-23T06:20:07.553Z,12.80
2019-04-23T06:22:35.380Z,12.40
2019-04-23T06:25:11.816Z,12.00
2019-04-23T06:27:43.144Z,9.00
2019-04-23T06:31:01.989Z,10.20
2019-04-23T06:32:57.158Z,16.40
2019-04-23T06:35:23.367Z,15.40
2019-04-23T06:40:26.655Z,14.80
2019-04-23T06:45:45.696Z,13.40
2019-04-23T06:48:22.291Z,18.60
2019-04-23T06:50:58.193Z,16.40
2019-04-23T06:53:19.714Z,16.20
2019-04-23T06:55:57.465Z,15.60
2019-04-23T06:58:32.649Z,9.60
2019-04-23T07:01:00.373Z,16.00
2019-04-23T07:03:38.808Z,15.60
2019-04-23T07:11:23.292Z,17.00
2019-04-23T07:16:19.256Z,19.40
2019-04-23T07:24:00.290Z,12.40
2019-04-23T07:29:05.068Z,17.60
2019-04-23T07:34:08.111Z,19.40
2019-04-23T07:36:35.590Z,19.00
2019-04-23T07:39:23.532Z,19.80
2019-04-23T07:48:14.933Z,14.60
2019-04-23T07:50:44.130Z,13.40
2019-04-23T07:58:21.582Z,16.40
2019-04-23T08:05:54.415Z,16.80
2019-04-23T08:08:26.936Z,15.40
2019-04-23T08:11:23.445Z,17.20
2019-04-23T08:13:41.650Z,16.40
2019-04-23T08:16:18.278Z,14.80
2019-04-23T08:21:20.885Z,18.20
2019-04-23T08:24:13.426Z,17.60
2019-04-23T08:29:27.710Z,25.20
2019-04-23T08:48:14.196Z,20.20
2019-04-23T08:50:42.552Z,18.00
2019-04-23T08:53:26.356Z,17.20
2019-04-23T08:58:19.149Z,18.00
2019-04-23T09:00:53.812Z,18.00
2019-04-23T09:03:25.221Z,18.80
2019-04-23T09:05:52.989Z,20.20
2019-04-23T09:08:21.823Z,19.40
2019-04-23T09:10:56.733Z,20.60
2019-04-23T09:15:55.972Z,18.00
2019-04-23T09:18:42.375Z,18.40
2019-04-23T09:20:55.004Z,17.60
2019-04-23T09:23:34.908Z,18.40
2019-04-23T09:25:57.549Z,15.40
2019-04-23T09:28:45.717Z,17.20
2019-04-23T09:31:30.383Z,24.20
2019-04-23T09:37:02.522Z,19.00
2019-04-23T09:39:34.897Z,19.00
2019-04-23T09:42:24.738Z,20.20
2019-04-23T09:45:28.247Z,21.00
2019-04-23T09:47:58.715Z,18.00
2019-04-23T09:53:06.676Z,19.20
2019-04-23T09:58:03.099Z,16.40
2019-04-23T10:02:55.535Z,17.40
2019-04-23T10:05:29.073Z,21.60
2019-04-23T10:08:00.164Z,22.40
2019-04-23T10:10:20.729Z,18.00
2019-04-23T10:12:53.646Z,17.00
2019-04-23T10:15:32.430Z,20.00
2019-04-23T10:18:00.420Z,14.80
2019-04-23T10:20:30.870Z,20.00
2019-04-23T10:23:00.345Z,22.60
2019-04-23T10:25:30.215Z,24.40
2019-04-23T10:28:04.980Z,15.20
2019-04-23T10:30:31.314Z,17.40
2019-04-23T10:33:01.394Z,17.60
2019-04-23T10:35:44.819Z,14.40
2019-04-23T10:38:10.804Z,15.20
2019-04-23T10:40:41.892Z,19.80
2019-04-23T10:43:09.319Z,18.25
2019-04-23T10:46:29.540Z,13.60
2019-04-23T10:52:07.580Z,19.40
2019-04-23T10:54:36.315Z,15.00
2019-04-23T10:57:01.663Z,19.40
2019-04-23T11:10:05.558Z,18.20
2019-04-23T11:15:33.747Z,15.20
2019-04-23T11:17:48.052Z,17.40
2019-04-23T11:20:30.207Z,19.20
2019-04-23T11:22:51.720Z,16.60
2019-04-23T11:25:31.875Z,12.00
2019-04-23T11:28:05.624Z,15.00
2019-04-23T11:30:36.715Z,18.60
2019-04-23T11:33:09.928Z,16.20
2019-04-23T11:35:58.381Z,13.20
2019-04-23T11:40:38.318Z,18.20
2019-04-23T11:43:22.671Z,17.60
2019-04-23T11:45:53.957Z,19.00
2019-04-23T11:53:32.012Z,13.00
2019-04-23T11:56:02.667Z,21.00
2019-04-23T11:58:35.977Z,12.40
2019-04-23T12:01:38.676Z,19.20
2019-04-23T12:04:14.313Z,19.40
2019-04-23T12:10:07.173Z,15.80
2019-04-23T12:12:28.058Z,16.20
2019-04-23T12:15:05.792Z,13.40
2019-04-23T12:17:50.776Z,12.00
2019-04-23T12:20:13.444Z,22.60
2019-04-23T12:22:57.522Z,19.60
2019-04-23T12:27:59.989Z,17.80
2019-04-23T12:30:30.259Z,17.00
2019-04-23T12:35:25.732Z,21.60
2019-04-23T12:38:04.117Z,19.40
2019-04-23T12:40:30.887Z,19.60
2019-04-23T12:43:11.684Z,17.40
2019-04-23T12:48:31.413Z,18.00
2019-04-23T12:53:57.786Z,21.60
2019-04-23T12:56:05.081Z,20.80
2019-04-23T12:58:29.245Z,19.60
2019-04-23T13:01:05.607Z,18.40
2019-04-23T13:06:11.770Z,13.40
2019-04-23T13:09:00.970Z,17.80
2019-04-23T13:11:21.517Z,16.80
2019-04-23T13:13:53.568Z,13.00
2019-04-23T13:16:25.266Z,13.20
2019-04-23T13:18:49.821Z,20.40
2019-04-23T13:21:45.013Z,15.20
2019-04-23T13:24:04.933Z,17.80
2019-04-23T13:26:32.042Z,22.20
2019-04-23T13:29:15.002Z,20.00
2019-04-23T13:31:34.652Z,16.80
2019-04-23T13:34:16.287Z,22.00
2019-04-23T13:36:45.066Z,20.20
2019-04-23T13:39:21.233Z,21.40
2019-04-23T13:41:46.241Z,17.80
2019-04-23T13:44:27.611Z,18.60
2019-04-23T13:46:55.891Z,18.00
2019-04-23T13:49:27.534Z,21.80
2019-04-23T13:52:05.613Z,22.00
2019-04-23T13:54:56.446Z,18.40
2019-04-23T13:57:36.614Z,24.80
2019-04-23T13:59:44.354Z,19.60
2019-04-23T14:02:16.937Z,24.60
2019-04-23T14:05:04.543Z,20.40
2019-04-23T14:07:34.647Z,22.20
2019-04-23T14:12:31.939Z,18.20
2019-04-23T14:17:46.947Z,16.80
2019-04-23T14:20:02.623Z,18.00
2019-04-23T14:25:05.794Z,21.20
2019-04-23T14:27:51.314Z,22.80
2019-04-23T14:32:45.730Z,24.40
2019-04-23T14:38:01.934Z,20.40
2019-04-23T14:42:59.985Z,16.60
2019-04-23T14:48:03.922Z,17.40
2019-04-23T14:53:13.163Z,21.80
2019-04-23T14:58:18.106Z,21.00
2019-04-23T15:00:53.833Z,18.20
2019-04-23T15:03:20.169Z,24.40
2019-04-23T15:05:59.259Z,15.80
2019-04-23T15:08:24.899Z,23.20
2019-04-23T15:11:08.208Z,22.40
2019-04-23T15:16:02.570Z,18.40
2019-04-23T15:19:11.655Z,26.80
2019-04-23T15:27:21.954Z,19.40
2019-04-23T15:28:43.158Z,18.00
2019-04-23T15:39:16.725Z,21.20
2019-04-23T15:41:53.092Z,25.00
2019-04-23T15:44:50.294Z,24.00
2019-04-23T15:54:17.834Z,24.60
2019-04-23T15:59:31.392Z,23.20
2019-04-23T16:01:43.520Z,23.80
2019-04-23T16:03:57.701Z,21.20
2019-04-23T16:06:34.775Z,28.40
2019-04-23T16:09:28.142Z,28.00
2019-04-23T16:11:59.459Z,25.40
2019-04-23T16:14:47.942Z,21.60
2019-04-23T16:17:24.040Z,25.20
2019-04-23T16:25:17.330Z,17.00
2019-04-23T16:27:36.595Z,19.80
2019-04-23T16:30:14.230Z,23.00
2019-04-23T16:35:44.012Z,21.80
2019-04-23T16:38:23.203Z,16.80
2019-04-23T16:40:42.593Z,23.00
2019-04-23T16:45:49.234Z,27.20
2019-04-23T16:48:23.944Z,31.80
2019-04-23T16:51:05.249Z,22.20
2019-04-23T16:53:26.668Z,19.80
2019-04-23T16:55:55.074Z,22.40
2019-04-23T16:58:50.101Z,26.20
2019-04-23T17:01:03.662Z,26.00
2019-04-23T17:03:31.868Z,21.20
2019-04-23T17:06:03.953Z,28.60
2019-04-23T17:11:09.703Z,23.00
2019-04-23T17:13:40.059Z,25.80
2019-04-23T17:16:23.386Z,22.60
2019-04-23T17:18:58.158Z,19.40
2019-04-23T17:21:23.428Z,18.60
2019-04-23T17:26:53.977Z,19.80
2019-04-23T17:29:28.706Z,20.80
2019-04-23T17:32:00.673Z,22.80
2019-04-23T17:35:05.212Z,20.00
2019-04-23T17:40:24.559Z,19.60
2019-04-23T17:42:56.066Z,18.40
2019-04-23T17:50:56.657Z,19.00
2019-04-23T17:53:29.797Z,20.00
2019-04-23T17:58:35.104Z,22.40
2019-04-23T18:04:10.664Z,12.60
2019-04-23T18:14:02.248Z,17.00
2019-04-23T18:16:41.682Z,16.00
2019-04-23T18:22:07.322Z,16.60
2019-04-23T18:24:50.686Z,25.60
2019-04-23T18:27:30.993Z,23.00
2019-04-23T18:30:15.409Z,19.60
2019-04-23T18:33:34.029Z,20.40
2019-04-23T18:35:40.467Z,23.00
2019-04-23T18:38:13.656Z,17.40
2019-04-23T18:41:03.957Z,21.60
2019-04-23T18:43:23.962Z,20.00
2019-04-23T18:45:54.074Z,18.40
2019-04-23T19:04:35.002Z,17.20
2019-04-23T19:06:59.414Z,22.00
2019-04-23T19:10:29.463Z,16.80
2019-04-23T19:13:07.315Z,22.00
2019-04-23T19:18:04.178Z,23.00
2019-04-23T19:20:53.860Z,22.60
2019-04-23T19:25:45.452Z,24.60
2019-04-23T19:28:38.145Z,24.60
2019-04-23T19:31:16.742Z,23.40
2019-04-23T19:33:35.996Z,19.00
2019-04-23T19:36:11.337Z,22.40
2019-04-23T19:38:39.567Z,25.00
2019-04-23T19:41:09.837Z,22.00
2019-04-23T19:43:57.646Z,20.40
2019-04-23T19:49:05.721Z,25.00
2019-04-23T19:51:28.211Z,21.60
2019-04-23T19:54:20.140Z,23.80
2019-04-23T19:58:59.699Z,24.60
2019-04-23T20:01:56.506Z,22.80
2019-04-23T20:04:21.499Z,24.80
2019-04-23T20:14:18.903Z,23.20
2019-04-23T20:17:17.591Z,22.40
2019-04-23T20:19:40.872Z,26.80
2019-04-23T20:27:11.857Z,26.20
2019-04-23T20:35:19.157Z,21.20
2019-04-23T20:38:17.307Z,17.80
2019-04-23T20:40:25.868Z,29.60
2019-04-23T20:45:20.114Z,25.00
2019-04-23T20:50:31.475Z,25.80
2019-04-23T20:52:51.515Z,20.20
2019-04-23T20:55:47.056Z,22.00
2019-04-23T20:58:47.882Z,27.60
2019-04-23T21:03:57.929Z,25.40
2019-04-23T21:06:46.508Z,19.80
2019-04-23T21:11:38.672Z,18.00
2019-04-23T21:16:35.683Z,24.60
2019-04-23T21:19:07.339Z,23.40
2019-04-23T21:21:39.983Z,25.20
2019-04-23T21:24:00.015Z,20.20
2019-04-23T21:26:42.572Z,19.40
2019-04-23T21:29:08.500Z,21.80
2019-04-23T21:31:55.597Z,19.80
2019-04-23T21:34:17.481Z,20.60
2019-04-23T21:36:57.537Z,19.40
2019-04-23T21:40:32.534Z,21.20
2019-04-23T21:42:41.166Z,21.60
2019-04-23T21:45:11.034Z,20.60
2019-04-23T21:47:46.009Z,25.00
2019-04-23T21:52:41.669Z,23.20
2019-04-23T21:55:14.994Z,18.40
2019-04-23T21:57:53.266Z,22.00
2019-04-23T22:00:19.022Z,25.40
2019-04-23T22:03:02.505Z,20.60
2019-04-23T22:10:31.927Z,18.40
2019-04-23T22:13:09.720Z,24.40
2019-04-23T22:15:45.250Z,21.40
2019-04-23T22:18:00.260Z,23.20
2019-04-23T22:28:10.307Z,18.60
2019-04-23T22:31:01.016Z,21.00
2019-04-23T22:33:21.614Z,18.80
2019-04-23T22:35:55.723Z,21.40
2019-04-23T22:40:58.153Z,21.60
2019-04-23T22:45:59.973Z,18.20
2019-04-23T22:48:41.269Z,20.40
2019-04-23T22:51:11.069Z,21.20
2019-04-23T22:53:35.916Z,24.60
2019-04-23T22:56:06.588Z,25.40
2019-04-23T22:58:51.283Z,24.00
2019-04-23T23:01:26.275Z,22.00
2019-04-23T23:04:15.477Z,21.40
2019-04-23T23:06:59.040Z,22.80
2019-04-23T23:16:51.502Z,22.20
2019-04-23T23:24:28.617Z,23.80
2019-04-23T23:29:28.314Z,19.80
2019-04-23T23:32:07.936Z,19.20
2019-04-23T23:34:51.515Z,18.60
2019-04-23T23:37:09.036Z,23.00
2019-04-23T23:44:58.319Z,19.60
2019-04-23T23:47:29.538Z,19.00
2019-04-23T23:49:55.015Z,18.20
2019-04-23T23:52:29.277Z,21.00
2019-04-23T23:55:03.878Z,21.80
2019-04-23T23:57:24.739Z,22.80
